sensor_id;sensor_type;location;lat;lon;timestamp;pressure;altitude;pressure_sealevel;temperature;humidity
22964;BME280;11648;49.306;6.934;2023-04-23T00:02:01;97795.47;;;15.94;79.33
22964;BME280;11648;49.306;6.934;2023-04-23T00:04:29;97791.09;;;15.51;80.03
22964;BME280;11648;49.306;6.934;2023-04-23T00:07:02;97790.53;;;15.85;79.26
22964;BME280;11648;49.306;6.934;2023-04-23T00:09:30;97785.50;;;15.78;78.83
22964;BME280;11648;49.306;6.934;2023-04-23T00:11:59;97789.50;;;16.09;77.60
22964;BME280;11648;49.306;6.934;2023-04-23T00:14:27;97789.22;;;16.15;77.20
22964;BME280;11648;49.306;6.934;2023-04-23T00:16:54;97788.16;;;15.99;77.39
22964;BME280;11648;49.306;6.934;2023-04-23T00:19:21;97780.88;;;15.84;77.82
22964;BME280;11648;49.306;6.934;2023-04-23T00:21:48;97776.81;;;15.95;76.86
22964;BME280;11648;49.306;6.934;2023-04-23T00:24:14;97776.72;;;16.17;77.13
22964;BME280;11648;49.306;6.934;2023-04-23T00:26:41;97780.97;;;16.21;76.64
22964;BME280;11648;49.306;6.934;2023-04-23T00:29:08;97774.50;;;16.08;76.80
22964;BME280;11648;49.306;6.934;2023-04-23T00:31:35;97776.00;;;16.13;76.67
22964;BME280;11648;49.306;6.934;2023-04-23T00:34:02;97774.78;;;16.41;75.83
22964;BME280;11648;49.306;6.934;2023-04-23T00:36:29;97771.28;;;16.40;75.91
22964;BME280;11648;49.306;6.934;2023-04-23T00:38:56;97775.78;;;16.58;75.14
22964;BME280;11648;49.306;6.934;2023-04-23T00:41:22;97781.25;;;16.54;75.38
22964;BME280;11648;49.306;6.934;2023-04-23T00:43:50;97785.41;;;16.20;76.13
22964;BME280;11648;49.306;6.934;2023-04-23T00:46:18;97783.97;;;16.34;75.66
22964;BME280;11648;49.306;6.934;2023-04-23T00:48:46;97791.25;;;16.28;75.90
22964;BME280;11648;49.306;6.934;2023-04-23T00:51:15;97787.91;;;16.05;76.84
22964;BME280;11648;49.306;6.934;2023-04-23T00:53:42;97792.00;;;15.92;76.95
22964;BME280;11648;49.306;6.934;2023-04-23T00:56:09;97782.84;;;16.19;76.85
22964;BME280;11648;49.306;6.934;2023-04-23T00:58:36;97784.97;;;16.11;77.17
22964;BME280;11648;49.306;6.934;2023-04-23T01:01:03;97773.53;;;16.29;76.54
22964;BME280;11648;49.306;6.934;2023-04-23T01:03:31;97784.03;;;16.32;76.13
22964;BME280;11648;49.306;6.934;2023-04-23T01:06:02;97783.25;;;16.30;76.73
22964;BME280;11648;49.306;6.934;2023-04-23T01:08:30;97781.38;;;16.32;76.59
22964;BME280;11648;49.306;6.934;2023-04-23T01:10:58;97791.16;;;16.50;75.68
22964;BME280;11648;49.306;6.934;2023-04-23T01:13:25;97784.47;;;16.62;74.91
22964;BME280;11648;49.306;6.934;2023-04-23T01:15:55;97783.06;;;16.73;75.15
22964;BME280;11648;49.306;6.934;2023-04-23T01:18:23;97780.16;;;16.78;74.44
22964;BME280;11648;49.306;6.934;2023-04-23T01:20:50;97792.47;;;16.81;74.69
22964;BME280;11648;49.306;6.934;2023-04-23T01:23:17;97789.47;;;16.88;74.29
22964;BME280;11648;49.306;6.934;2023-04-23T01:25:44;97786.09;;;16.85;74.29
22964;BME280;11648;49.306;6.934;2023-04-23T01:28:11;97789.22;;;16.93;74.38
22964;BME280;11648;49.306;6.934;2023-04-23T01:30:41;97789.06;;;16.96;73.79
22964;BME280;11648;49.306;6.934;2023-04-23T01:33:09;97790.75;;;16.98;73.46
22964;BME280;11648;49.306;6.934;2023-04-23T01:35:38;97786.91;;;17.04;73.10
22964;BME280;11648;49.306;6.934;2023-04-23T01:38:07;97783.19;;;16.89;73.16
22964;BME280;11648;49.306;6.934;2023-04-23T01:40:34;97785.78;;;16.91;73.66
22964;BME280;11648;49.306;6.934;2023-04-23T01:43:02;97781.75;;;17.01;73.41
22964;BME280;11648;49.306;6.934;2023-04-23T01:45:30;97787.78;;;17.04;73.39
22964;BME280;11648;49.306;6.934;2023-04-23T01:47:58;97784.78;;;16.93;73.66
22964;BME280;11648;49.306;6.934;2023-04-23T01:50:26;97784.88;;;16.92;73.36
22964;BME280;11648;49.306;6.934;2023-04-23T01:52:54;97783.91;;;16.93;72.83
22964;BME280;11648;49.306;6.934;2023-04-23T01:55:21;97793.31;;;16.62;73.20
22964;BME280;11648;49.306;6.934;2023-04-23T01:57:49;97787.56;;;16.71;73.54
22964;BME280;11648;49.306;6.934;2023-04-23T02:00:17;97789.34;;;16.71;73.36
22964;BME280;11648;49.306;6.934;2023-04-23T02:02:44;97791.28;;;16.67;73.82
22964;BME280;11648;49.306;6.934;2023-04-23T02:05:13;97788.63;;;16.67;73.15
22964;BME280;11648;49.306;6.934;2023-04-23T02:07:42;97785.72;;;16.73;72.87
22964;BME280;11648;49.306;6.934;2023-04-23T02:10:10;97784.91;;;16.71;73.27
22964;BME280;11648;49.306;6.934;2023-04-23T02:12:37;97787.84;;;16.65;73.04
22964;BME280;11648;49.306;6.934;2023-04-23T02:15:05;97785.72;;;16.53;73.12
22964;BME280;11648;49.306;6.934;2023-04-23T02:17:32;97792.91;;;16.51;73.29
22964;BME280;11648;49.306;6.934;2023-04-23T02:20:00;97798.28;;;16.50;73.11
22964;BME280;11648;49.306;6.934;2023-04-23T02:22:27;97791.78;;;16.57;72.95
22964;BME280;11648;49.306;6.934;2023-04-23T02:24:54;97793.97;;;16.47;73.37
22964;BME280;11648;49.306;6.934;2023-04-23T02:27:20;97795.72;;;16.48;73.97
22964;BME280;11648;49.306;6.934;2023-04-23T02:29:47;97786.00;;;16.47;73.41
22964;BME280;11648;49.306;6.934;2023-04-23T02:32:14;97783.63;;;16.61;73.13
22964;BME280;11648;49.306;6.934;2023-04-23T02:34:41;97784.84;;;16.34;74.35
22964;BME280;11648;49.306;6.934;2023-04-23T02:37:08;97795.16;;;16.60;73.68
22964;BME280;11648;49.306;6.934;2023-04-23T02:39:35;97794.19;;;16.63;73.47
22964;BME280;11648;49.306;6.934;2023-04-23T02:42:04;97799.25;;;16.67;73.60
22964;BME280;11648;49.306;6.934;2023-04-23T02:44:32;97793.81;;;16.50;73.66
22964;BME280;11648;49.306;6.934;2023-04-23T02:46:59;97785.09;;;16.67;73.17
22964;BME280;11648;49.306;6.934;2023-04-23T02:49:26;97788.63;;;16.67;73.00
22964;BME280;11648;49.306;6.934;2023-04-23T02:51:52;97787.78;;;16.67;72.99
22964;BME280;11648;49.306;6.934;2023-04-23T02:54:19;97787.56;;;16.71;72.92
22964;BME280;11648;49.306;6.934;2023-04-23T02:56:46;97785.78;;;16.72;73.11
22964;BME280;11648;49.306;6.934;2023-04-23T02:59:13;97788.13;;;16.78;72.85
22964;BME280;11648;49.306;6.934;2023-04-23T03:01:40;97796.34;;;16.73;72.63
22964;BME280;11648;49.306;6.934;2023-04-23T03:04:08;97798.91;;;16.75;72.64
22964;BME280;11648;49.306;6.934;2023-04-23T03:06:35;97797.47;;;16.68;72.23
22964;BME280;11648;49.306;6.934;2023-04-23T03:09:02;97798.00;;;16.76;72.00
22964;BME280;11648;49.306;6.934;2023-04-23T03:11:30;97793.31;;;16.62;72.30
22964;BME280;11648;49.306;6.934;2023-04-23T03:13:57;97799.13;;;16.50;72.27
22964;BME280;11648;49.306;6.934;2023-04-23T03:16:25;97792.97;;;16.50;72.63
22964;BME280;11648;49.306;6.934;2023-04-23T03:18:52;97794.44;;;16.37;73.29
22964;BME280;11648;49.306;6.934;2023-04-23T03:21:19;97794.16;;;16.43;73.02
22964;BME280;11648;49.306;6.934;2023-04-23T03:23:46;97803.69;;;16.28;73.65
22964;BME280;11648;49.306;6.934;2023-04-23T03:26:12;97804.47;;;16.10;74.24
22964;BME280;11648;49.306;6.934;2023-04-23T03:28:39;97798.31;;;16.29;73.58
22964;BME280;11648;49.306;6.934;2023-04-23T03:31:06;97800.69;;;16.36;73.14
22964;BME280;11648;49.306;6.934;2023-04-23T03:33:32;97798.16;;;16.33;73.33
22964;BME280;11648;49.306;6.934;2023-04-23T03:35:59;97789.19;;;16.35;73.01
22964;BME280;11648;49.306;6.934;2023-04-23T03:38:29;97784.69;;;16.37;72.99
22964;BME280;11648;49.306;6.934;2023-04-23T03:40:57;97782.69;;;16.42;72.97
22964;BME280;11648;49.306;6.934;2023-04-23T03:43:24;97775.91;;;16.35;72.67
22964;BME280;11648;49.306;6.934;2023-04-23T03:46:11;97785.38;;;16.22;73.17
22964;BME280;11648;49.306;6.934;2023-04-23T03:48:40;97785.41;;;16.20;73.49
22964;BME280;11648;49.306;6.934;2023-04-23T03:51:16;97778.31;;;16.21;73.10
22964;BME280;11648;49.306;6.934;2023-04-23T03:53:47;97777.25;;;16.25;73.06
22964;BME280;11648;49.306;6.934;2023-04-23T03:56:43;97780.13;;;16.00;73.82
22964;BME280;11648;49.306;6.934;2023-04-23T03:59:10;97780.91;;;16.02;74.24
22964;BME280;11648;49.306;6.934;2023-04-23T04:01:37;97782.59;;;16.05;74.14
22964;BME280;11648;49.306;6.934;2023-04-23T04:04:04;97781.06;;;16.19;73.90
22964;BME280;11648;49.306;6.934;2023-04-23T04:06:32;97790.22;;;16.12;73.84
22964;BME280;11648;49.306;6.934;2023-04-23T04:08:58;97783.31;;;16.08;74.15
22964;BME280;11648;49.306;6.934;2023-04-23T04:11:25;97788.03;;;16.02;74.38
22964;BME280;11648;49.306;6.934;2023-04-23T04:13:52;97784.97;;;16.11;74.42
22964;BME280;11648;49.306;6.934;2023-04-23T04:16:18;97774.81;;;16.20;74.12
22964;BME280;11648;49.306;6.934;2023-04-23T04:18:45;97786.13;;;16.05;74.21
22964;BME280;11648;49.306;6.934;2023-04-23T04:21:12;97778.19;;;16.24;74.04
22964;BME280;11648;49.306;6.934;2023-04-23T04:23:39;97783.78;;;16.18;74.13
22964;BME280;11648;49.306;6.934;2023-04-23T04:26:05;97779.53;;;16.14;74.00
22964;BME280;11648;49.306;6.934;2023-04-23T04:28:33;97772.03;;;16.23;73.76
22964;BME280;11648;49.306;6.934;2023-04-23T04:31:02;97772.88;;;16.24;73.76
22964;BME280;11648;49.306;6.934;2023-04-23T04:33:32;97777.16;;;16.08;74.02
22964;BME280;11648;49.306;6.934;2023-04-23T04:36:01;97763.44;;;16.17;74.12
22964;BME280;11648;49.306;6.934;2023-04-23T04:38:27;97771.69;;;16.11;74.44
22964;BME280;11648;49.306;6.934;2023-04-23T04:40:55;97762.66;;;16.15;74.41
22964;BME280;11648;49.306;6.934;2023-04-23T04:43:25;97760.47;;;16.24;73.56
22964;BME280;11648;49.306;6.934;2023-04-23T04:45:52;97768.19;;;16.10;74.08
22964;BME280;11648;49.306;6.934;2023-04-23T04:48:19;97759.44;;;16.08;74.10
22964;BME280;11648;49.306;6.934;2023-04-23T04:50:46;97762.13;;;16.07;74.14
22964;BME280;11648;49.306;6.934;2023-04-23T04:53:13;97762.34;;;16.02;74.00
22964;BME280;11648;49.306;6.934;2023-04-23T04:55:40;97766.66;;;15.85;73.89
22964;BME280;11648;49.306;6.934;2023-04-23T04:58:07;97767.00;;;15.97;74.09
22964;BME280;11648;49.306;6.934;2023-04-23T05:00:33;97769.66;;;15.97;74.01
22964;BME280;11648;49.306;6.934;2023-04-23T05:03:00;97770.97;;;16.07;73.78
22964;BME280;11648;49.306;6.934;2023-04-23T05:05:27;97772.81;;;16.25;73.40
22964;BME280;11648;49.306;6.934;2023-04-23T05:07:54;97767.16;;;16.13;73.13
22964;BME280;11648;49.306;6.934;2023-04-23T05:10:20;97772.03;;;16.23;72.90
22964;BME280;11648;49.306;6.934;2023-04-23T05:12:47;97770.72;;;15.93;73.61
22964;BME280;11648;49.306;6.934;2023-04-23T05:15:14;97777.00;;;16.11;73.36
22964;BME280;11648;49.306;6.934;2023-04-23T05:17:41;97771.72;;;15.91;73.76
22964;BME280;11648;49.306;6.934;2023-04-23T05:20:09;97782.47;;;16.08;73.55
22964;BME280;11648;49.306;6.934;2023-04-23T05:22:40;97775.94;;;16.15;73.21
22964;BME280;11648;49.306;6.934;2023-04-23T05:25:08;97780.97;;;16.21;73.08
22964;BME280;11648;49.306;6.934;2023-04-23T05:27:35;97783.09;;;16.33;72.70
22964;BME280;11648;49.306;6.934;2023-04-23T05:30:04;97770.59;;;16.35;72.67
22964;BME280;11648;49.306;6.934;2023-04-23T05:32:32;97770.25;;;16.43;72.20
22964;BME280;11648;49.306;6.934;2023-04-23T05:34:59;97771.25;;;16.60;71.47
22964;BME280;11648;49.306;6.934;2023-04-23T05:37:29;97765.81;;;16.82;70.60
22964;BME280;11648;49.306;6.934;2023-04-23T05:39:56;97762.50;;;16.77;71.14
22964;BME280;11648;49.306;6.934;2023-04-23T05:42:26;97766.81;;;16.79;70.43
22964;BME280;11648;49.306;6.934;2023-04-23T05:44:53;97773.22;;;16.94;70.05
22964;BME280;11648;49.306;6.934;2023-04-23T05:47:19;97774.34;;;16.89;70.63
22964;BME280;11648;49.306;6.934;2023-04-23T05:49:47;97769.53;;;16.78;70.31
22964;BME280;11648;49.306;6.934;2023-04-23T05:52:14;97775.31;;;16.88;70.03
22964;BME280;11648;49.306;6.934;2023-04-23T05:54:41;97774.00;;;16.59;70.46
22964;BME280;11648;49.306;6.934;2023-04-23T05:57:08;97785.00;;;16.70;70.38
22964;BME280;11648;49.306;6.934;2023-04-23T05:59:34;97794.03;;;16.46;71.24
22964;BME280;11648;49.306;6.934;2023-04-23T06:02:01;97785.78;;;16.72;70.83
22964;BME280;11648;49.306;6.934;2023-04-23T06:04:28;97783.78;;;16.77;70.01
22964;BME280;11648;49.306;6.934;2023-04-23T06:06:55;97779.97;;;16.83;70.27
22964;BME280;11648;49.306;6.934;2023-04-23T06:09:22;97794.88;;;16.85;70.44
22964;BME280;11648;49.306;6.934;2023-04-23T06:11:51;97782.31;;;16.89;70.53
22964;BME280;11648;49.306;6.934;2023-04-23T06:14:17;97787.06;;;16.82;70.28
22964;BME280;11648;49.306;6.934;2023-04-23T06:16:44;97789.31;;;16.52;70.67
22964;BME280;11648;49.306;6.934;2023-04-23T06:19:11;97785.06;;;16.87;70.55
22964;BME280;11648;49.306;6.934;2023-04-23T06:21:38;97787.13;;;16.99;69.20
22964;BME280;11648;49.306;6.934;2023-04-23T06:24:05;97774.69;;;17.18;69.25
22964;BME280;11648;49.306;6.934;2023-04-23T06:26:33;97777.66;;;17.48;67.44
22964;BME280;11648;49.306;6.934;2023-04-23T06:29:08;97772.78;;;17.58;67.02
22964;BME280;11648;49.306;6.934;2023-04-23T06:32:00;97778.25;;;17.89;66.34
22964;BME280;11648;49.306;6.934;2023-04-23T06:34:28;97782.28;;;17.98;65.83
22964;BME280;11648;49.306;6.934;2023-04-23T06:36:55;97772.84;;;18.08;64.62
22964;BME280;11648;49.306;6.934;2023-04-23T06:39:22;97773.31;;;17.64;65.40
22964;BME280;11648;49.306;6.934;2023-04-23T06:41:49;97766.44;;;17.60;65.75
22964;BME280;11648;49.306;6.934;2023-04-23T06:44:32;97764.41;;;17.83;66.02
22964;BME280;11648;49.306;6.934;2023-04-23T06:47:00;97763.63;;;17.81;66.38
22964;BME280;11648;49.306;6.934;2023-04-23T06:49:27;97756.81;;;18.09;65.85
22964;BME280;11648;49.306;6.934;2023-04-23T06:51:54;97763.16;;;17.72;65.09
22964;BME280;11648;49.306;6.934;2023-04-23T06:54:23;97757.69;;;17.40;66.73
22964;BME280;11648;49.306;6.934;2023-04-23T06:56:49;97758.16;;;17.84;65.70
22964;BME280;11648;49.306;6.934;2023-04-23T06:59:16;97759.22;;;17.97;66.14
22964;BME280;11648;49.306;6.934;2023-04-23T07:01:46;97756.50;;;17.98;64.30
22964;BME280;11648;49.306;6.934;2023-04-23T07:04:12;97747.31;;;18.04;64.21
22964;BME280;11648;49.306;6.934;2023-04-23T07:06:39;97755.25;;;18.05;64.36
22964;BME280;11648;49.306;6.934;2023-04-23T07:09:06;97753.28;;;18.09;64.03
22964;BME280;11648;49.306;6.934;2023-04-23T07:11:33;97756.13;;;18.06;64.38
22964;BME280;11648;49.306;6.934;2023-04-23T07:14:02;97746.84;;;18.13;64.31
22964;BME280;11648;49.306;6.934;2023-04-23T07:16:29;97749.59;;;18.11;64.52
22964;BME280;11648;49.306;6.934;2023-04-23T07:19:00;97743.69;;;18.22;64.48
22964;BME280;11648;49.306;6.934;2023-04-23T07:21:27;97739.81;;;18.12;65.02
22964;BME280;11648;49.306;6.934;2023-04-23T07:23:55;97748.03;;;18.07;64.23
22964;BME280;11648;49.306;6.934;2023-04-23T07:26:23;97740.16;;;18.21;64.20
22964;BME280;11648;49.306;6.934;2023-04-23T07:28:50;97740.97;;;18.39;62.95
22964;BME280;11648;49.306;6.934;2023-04-23T07:31:18;97730.94;;;18.61;62.48
22964;BME280;11648;49.306;6.934;2023-04-23T07:33:46;97727.25;;;18.64;62.94
22964;BME280;11648;49.306;6.934;2023-04-23T07:36:13;97721.31;;;18.59;62.78
22964;BME280;11648;49.306;6.934;2023-04-23T07:38:40;97727.31;;;18.62;62.51
22964;BME280;11648;49.306;6.934;2023-04-23T07:41:06;97719.19;;;18.81;62.01
22964;BME280;11648;49.306;6.934;2023-04-23T07:43:33;97718.47;;;19.09;61.63
22964;BME280;11648;49.306;6.934;2023-04-23T07:46:00;97711.47;;;19.22;61.32
22964;BME280;11648;49.306;6.934;2023-04-23T07:48:27;97702.38;;;19.42;58.49
22964;BME280;11648;49.306;6.934;2023-04-23T07:50:54;97708.69;;;19.85;58.56
22964;BME280;11648;49.306;6.934;2023-04-23T07:53:21;97704.22;;;20.29;56.61
22964;BME280;11648;49.306;6.934;2023-04-23T07:55:48;97707.44;;;20.48;56.38
22964;BME280;11648;49.306;6.934;2023-04-23T07:58:14;97696.03;;;21.01;54.40
22964;BME280;11648;49.306;6.934;2023-04-23T08:00:41;97689.97;;;21.26;53.47
22964;BME280;11648;49.306;6.934;2023-04-23T08:03:08;97693.16;;;21.58;53.08
22964;BME280;11648;49.306;6.934;2023-04-23T08:05:34;97692.63;;;21.92;52.68
22964;BME280;11648;49.306;6.934;2023-04-23T08:08:03;97695.97;;;21.30;53.19
22964;BME280;11648;49.306;6.934;2023-04-23T08:10:30;97688.63;;;21.46;53.37
22964;BME280;11648;49.306;6.934;2023-04-23T08:12:57;97695.47;;;21.77;52.35
22964;BME280;11648;49.306;6.934;2023-04-23T08:15:24;97689.25;;;21.89;51.37
22964;BME280;11648;49.306;6.934;2023-04-23T08:17:50;97694.56;;;22.15;51.27
22964;BME280;11648;49.306;6.934;2023-04-23T08:20:17;97690.78;;;21.93;51.65
22964;BME280;11648;49.306;6.934;2023-04-23T08:22:44;97701.94;;;21.06;53.18
22964;BME280;11648;49.306;6.934;2023-04-23T08:25:11;97701.47;;;21.14;53.60
22964;BME280;11648;49.306;6.934;2023-04-23T08:27:38;97698.06;;;20.84;53.26
22964;BME280;11648;49.306;6.934;2023-04-23T08:30:05;97699.81;;;20.42;54.84
22964;BME280;11648;49.306;6.934;2023-04-23T08:32:33;97698.88;;;20.43;54.39
22964;BME280;11648;49.306;6.934;2023-04-23T08:35:00;97697.06;;;20.58;54.15
22964;BME280;11648;49.306;6.934;2023-04-23T08:37:27;97697.16;;;20.28;54.65
22964;BME280;11648;49.306;6.934;2023-04-23T08:39:57;97707.81;;;20.14;55.79
22964;BME280;11648;49.306;6.934;2023-04-23T08:42:53;97705.31;;;20.11;56.24
22964;BME280;11648;49.306;6.934;2023-04-23T08:45:23;97701.16;;;20.63;54.43
22964;BME280;11648;49.306;6.934;2023-04-23T08:47:50;97701.09;;;20.92;53.62
22964;BME280;11648;49.306;6.934;2023-04-23T08:50:18;97697.84;;;21.15;52.12
22964;BME280;11648;49.306;6.934;2023-04-23T08:52:53;97700.63;;;21.40;53.10
22964;BME280;11648;49.306;6.934;2023-04-23T08:55:21;97687.59;;;21.07;53.38
22964;BME280;11648;49.306;6.934;2023-04-23T08:57:49;97689.34;;;21.35;53.51
22964;BME280;11648;49.306;6.934;2023-04-23T09:00:18;97695.59;;;21.22;53.71
22964;BME280;11648;49.306;6.934;2023-04-23T09:02:46;97681.25;;;21.49;52.87
22964;BME280;11648;49.306;6.934;2023-04-23T09:05:15;97683.72;;;21.92;53.26
22964;BME280;11648;49.306;6.934;2023-04-23T09:07:42;97686.66;;;21.75;53.48
22964;BME280;11648;49.306;6.934;2023-04-23T09:10:11;97683.47;;;21.43;53.54
22964;BME280;11648;49.306;6.934;2023-04-23T09:12:42;97684.78;;;21.50;53.88
22964;BME280;11648;49.306;6.934;2023-04-23T09:15:09;97689.41;;;21.60;53.29
22964;BME280;11648;49.306;6.934;2023-04-23T09:17:38;97686.22;;;21.81;52.47
22964;BME280;11648;49.306;6.934;2023-04-23T09:20:07;97686.50;;;22.03;51.76
22964;BME280;11648;49.306;6.934;2023-04-23T09:25:19;97679.78;;;21.71;51.51
22964;BME280;11648;49.306;6.934;2023-04-23T09:27:47;97680.94;;;21.54;52.55
22964;BME280;11648;49.306;6.934;2023-04-23T09:30:15;97681.50;;;21.32;52.82
22964;BME280;11648;49.306;6.934;2023-04-23T09:32:43;97673.53;;;21.97;50.36
22964;BME280;11648;49.306;6.934;2023-04-23T09:35:16;97650.13;;;23.70;47.01
22964;BME280;11648;49.306;6.934;2023-04-23T09:37:47;97634.22;;;25.01;44.44
22964;BME280;11648;49.306;6.934;2023-04-23T09:40:18;97631.19;;;24.50;44.22
22964;BME280;11648;49.306;6.934;2023-04-23T09:42:47;97635.41;;;23.51;46.76
22964;BME280;11648;49.306;6.934;2023-04-23T09:45:15;97639.41;;;22.98;47.96
22964;BME280;11648;49.306;6.934;2023-04-23T09:47:49;97633.88;;;22.63;48.74
22964;BME280;11648;49.306;6.934;2023-04-23T09:50:33;97631.44;;;22.60;47.75
22964;BME280;11648;49.306;6.934;2023-04-23T09:53:02;97624.91;;;23.01;48.33
22964;BME280;11648;49.306;6.934;2023-04-23T09:55:38;97619.03;;;23.43;46.98
22964;BME280;11648;49.306;6.934;2023-04-23T09:58:14;97612.75;;;23.67;46.13
22964;BME280;11648;49.306;6.934;2023-04-23T10:00:41;97602.84;;;24.13;46.17
22964;BME280;11648;49.306;6.934;2023-04-23T10:03:08;97595.72;;;24.12;45.47
22964;BME280;11648;49.306;6.934;2023-04-23T10:05:41;97598.41;;;24.12;46.08
22964;BME280;11648;49.306;6.934;2023-04-23T10:08:11;97593.66;;;24.38;45.85
22964;BME280;11648;49.306;6.934;2023-04-23T10:10:40;97594.13;;;24.09;45.41
22964;BME280;11648;49.306;6.934;2023-04-23T10:13:25;97593.78;;;24.14;45.52
22964;BME280;11648;49.306;6.934;2023-04-23T10:15:53;97590.22;;;23.56;45.44
22964;BME280;11648;49.306;6.934;2023-04-23T10:18:20;97595.34;;;23.25;46.37
22964;BME280;11648;49.306;6.934;2023-04-23T10:20:48;97594.28;;;22.80;48.31
22964;BME280;11648;49.306;6.934;2023-04-23T10:23:16;97596.44;;;22.75;47.49
22964;BME280;11648;49.306;6.934;2023-04-23T10:25:46;97600.88;;;22.63;47.52
22964;BME280;11648;49.306;6.934;2023-04-23T10:28:16;97593.25;;;22.57;48.28
22964;BME280;11648;49.306;6.934;2023-04-23T10:30:47;97591.41;;;23.18;47.68
22964;BME280;11648;49.306;6.934;2023-04-23T10:33:15;97591.16;;;23.09;48.24
22964;BME280;11648;49.306;6.934;2023-04-23T10:35:56;97569.63;;;23.33;45.97
22964;BME280;11648;49.306;6.934;2023-04-23T10:38:25;97562.97;;;24.29;44.98
22964;BME280;11648;49.306;6.934;2023-04-23T10:40:55;97547.13;;;25.12;42.05
22964;BME280;11648;49.306;6.934;2023-04-23T10:43:24;97540.25;;;25.19;41.88
22964;BME280;11648;49.306;6.934;2023-04-23T10:45:51;97548.13;;;25.11;42.37
22964;BME280;11648;49.306;6.934;2023-04-23T10:48:19;97517.38;;;26.27;38.66
22964;BME280;11648;49.306;6.934;2023-04-23T10:50:56;97515.84;;;25.52;38.49
22964;BME280;11648;49.306;6.934;2023-04-23T10:53:44;97510.59;;;25.72;38.69
22964;BME280;11648;49.306;6.934;2023-04-23T10:56:11;97506.63;;;26.36;38.17
22964;BME280;11648;49.306;6.934;2023-04-23T10:58:48;97491.78;;;26.80;36.67
22964;BME280;11648;49.306;6.934;2023-04-23T11:01:18;97490.00;;;27.00;37.04
22964;BME280;11648;49.306;6.934;2023-04-23T11:03:47;97470.97;;;28.86;34.09
22964;BME280;11648;49.306;6.934;2023-04-23T11:06:19;97436.41;;;30.26;30.53
22964;BME280;11648;49.306;6.934;2023-04-23T11:11:54;97442.22;;;29.98;31.09
22964;BME280;11648;49.306;6.934;2023-04-23T11:14:32;97419.47;;;32.18;28.02
22964;BME280;11648;49.306;6.934;2023-04-23T11:17:01;97405.75;;;34.80;26.24
22964;BME280;11648;49.306;6.934;2023-04-23T11:19:28;97403.94;;;33.03;25.86
22964;BME280;11648;49.306;6.934;2023-04-23T11:27:17;97390.75;;;31.20;27.23
22964;BME280;11648;49.306;6.934;2023-04-23T11:29:45;97380.66;;;32.08;25.67
22964;BME280;11648;49.306;6.934;2023-04-23T11:32:16;97369.03;;;32.99;25.74
22964;BME280;11648;49.306;6.934;2023-04-23T11:34:44;97375.28;;;33.45;25.02
22964;BME280;11648;49.306;6.934;2023-04-23T11:37:16;97368.16;;;31.83;25.36
22964;BME280;11648;49.306;6.934;2023-04-23T11:39:44;97376.78;;;30.83;27.98
22964;BME280;11648;49.306;6.934;2023-04-23T11:42:13;97380.66;;;30.48;27.59
22964;BME280;11648;49.306;6.934;2023-04-23T11:44:41;97383.59;;;30.13;28.35
22964;BME280;11648;49.306;6.934;2023-04-23T11:47:12;97373.97;;;29.84;28.39
22964;BME280;11648;49.306;6.934;2023-04-23T11:49:41;97367.19;;;30.38;27.77
22964;BME280;11648;49.306;6.934;2023-04-23T11:52:10;97361.13;;;31.42;27.75
22964;BME280;11648;49.306;6.934;2023-04-23T11:54:39;97346.94;;;32.17;25.59
22964;BME280;11648;49.306;6.934;2023-04-23T11:57:07;97343.19;;;32.18;25.32
22964;BME280;11648;49.306;6.934;2023-04-23T11:59:34;97333.22;;;31.64;25.76
22964;BME280;11648;49.306;6.934;2023-04-23T12:02:01;97336.31;;;31.36;25.98
22964;BME280;11648;49.306;6.934;2023-04-23T12:04:28;97328.75;;;31.71;26.20
22964;BME280;11648;49.306;6.934;2023-04-23T12:06:56;97342.44;;;30.90;26.99
22964;BME280;11648;49.306;6.934;2023-04-23T12:09:26;97324.47;;;30.49;27.46
22964;BME280;11648;49.306;6.934;2023-04-23T12:11:55;97340.16;;;30.29;27.58
22964;BME280;11648;49.306;6.934;2023-04-23T12:14:29;97330.91;;;30.72;27.51
22964;BME280;11648;49.306;6.934;2023-04-23T12:16:57;97331.94;;;29.29;27.32
22964;BME280;11648;49.306;6.934;2023-04-23T12:19:29;97322.41;;;30.59;26.97
22964;BME280;11648;49.306;6.934;2023-04-23T12:22:00;97311.72;;;31.14;26.56
22964;BME280;11648;49.306;6.934;2023-04-23T12:24:44;97308.09;;;30.16;27.73
22964;BME280;11648;49.306;6.934;2023-04-23T12:27:15;97311.47;;;29.09;27.94
22964;BME280;11648;49.306;6.934;2023-04-23T12:29:46;97315.06;;;29.77;28.79
22964;BME280;11648;49.306;6.934;2023-04-23T12:32:14;97321.53;;;29.50;29.23
22964;BME280;11648;49.306;6.934;2023-04-23T12:34:54;97311.69;;;29.15;29.16
22964;BME280;11648;49.306;6.934;2023-04-23T12:37:29;97328.09;;;28.17;28.29
22964;BME280;11648;49.306;6.934;2023-04-23T12:39:56;97321.72;;;27.17;30.31
22964;BME280;11648;49.306;6.934;2023-04-23T12:42:25;97329.66;;;27.28;30.09
22964;BME280;11648;49.306;6.934;2023-04-23T12:44:52;97321.25;;;26.75;31.94
22964;BME280;11648;49.306;6.934;2023-04-23T12:47:21;97331.06;;;26.67;31.76
22964;BME280;11648;49.306;6.934;2023-04-23T12:49:48;97329.06;;;26.97;31.89
22964;BME280;11648;49.306;6.934;2023-04-23T12:52:19;97337.56;;;26.74;32.97
22964;BME280;11648;49.306;6.934;2023-04-23T12:54:46;97324.94;;;26.74;32.03
22964;BME280;11648;49.306;6.934;2023-04-23T12:57:17;97331.91;;;26.38;32.29
22964;BME280;11648;49.306;6.934;2023-04-23T12:59:47;97329.47;;;25.27;33.35
22964;BME280;11648;49.306;6.934;2023-04-23T13:02:14;97325.19;;;24.94;33.86
22964;BME280;11648;49.306;6.934;2023-04-23T13:04:41;97325.69;;;25.08;34.30
22964;BME280;11648;49.306;6.934;2023-04-23T13:07:08;97321.56;;;25.65;34.44
22964;BME280;11648;49.306;6.934;2023-04-23T13:09:35;97313.91;;;25.61;35.04
22964;BME280;11648;49.306;6.934;2023-04-23T13:12:02;97314.78;;;25.80;33.85
22964;BME280;11648;49.306;6.934;2023-04-23T13:14:28;97316.78;;;25.48;33.93
22964;BME280;11648;49.306;6.934;2023-04-23T13:16:57;97304.19;;;25.48;33.67
22964;BME280;11648;49.306;6.934;2023-04-23T13:19:24;97310.22;;;24.80;34.57